createdAt,value
2022-11-15T00:00:32.348Z,21.45
2022-11-15T00:03:52.785Z,20.90
2022-11-15T00:07:33.305Z,20.97
2022-11-15T00:11:00.666Z,20.65
2022-11-15T00:14:20.554Z,18.27
2022-11-15T00:17:40.892Z,18.17
2022-11-15T00:21:07.130Z,18.35
2022-11-15T00:24:27.202Z,19.67
2022-11-15T00:27:47.265Z,17.73
2022-11-15T00:31:12.686Z,20.40
2022-11-15T00:34:32.989Z,17.70
2022-11-15T00:37:53.564Z,18.27
2022-11-15T00:41:13.794Z,18.43
2022-11-15T00:44:33.776Z,19.38
2022-11-15T00:47:53.964Z,18.02
2022-11-15T00:51:14.026Z,17.88
2022-11-15T00:54:33.957Z,18.38
2022-11-15T00:57:54.087Z,18.52
2022-11-15T01:01:15.568Z,19.38
2022-11-15T01:04:35.826Z,18.43
2022-11-15T01:07:57.041Z,17.27
2022-11-15T01:11:17.357Z,16.33
2022-11-15T01:14:37.320Z,15.50
2022-11-15T01:17:57.338Z,16.05
2022-11-15T01:21:20.089Z,15.80
2022-11-15T01:24:40.113Z,16.27
2022-11-15T01:28:00.243Z,14.80
2022-11-15T01:31:22.032Z,15.85
2022-11-15T01:34:41.912Z,16.58
2022-11-15T01:38:02.094Z,16.23
2022-11-15T01:41:31.571Z,17.50
2022-11-15T01:44:55.690Z,18.58
2022-11-15T01:48:15.674Z,16.47
2022-11-15T01:51:36.111Z,14.05
2022-11-15T01:55:03.079Z,15.77
2022-11-15T01:58:23.383Z,15.80
2022-11-15T02:01:44.108Z,16.40
2022-11-15T02:05:04.886Z,15.52
2022-11-15T02:08:25.190Z,15.85
2022-11-15T02:11:47.926Z,14.07
2022-11-15T02:15:09.765Z,13.73
2022-11-15T02:18:36.412Z,15.10
2022-11-15T02:22:28.924Z,15.17
2022-11-15T02:26:13.568Z,14.27
2022-11-15T02:30:04.625Z,14.82
2022-11-15T02:33:37.455Z,14.50
2022-11-15T02:37:03.302Z,15.38
2022-11-15T02:40:52.156Z,14.65
2022-11-15T02:44:22.639Z,14.57
2022-11-15T02:47:47.001Z,13.90
2022-11-15T02:51:07.840Z,13.63
2022-11-15T02:54:32.771Z,14.43
2022-11-15T02:58:00.747Z,14.90
2022-11-15T03:01:47.623Z,14.65
2022-11-15T03:05:16.239Z,13.52
2022-11-15T03:08:51.097Z,14.77
2022-11-15T03:12:22.722Z,15.18
2022-11-15T03:15:50.961Z,15.00
2022-11-15T03:19:18.174Z,14.85
2022-11-15T03:22:43.382Z,17.23
2022-11-15T03:26:08.231Z,14.95
2022-11-15T03:29:34.930Z,16.70
2022-11-15T03:32:57.865Z,16.27
2022-11-15T03:36:19.214Z,15.50
2022-11-15T03:39:39.449Z,18.15
2022-11-15T03:43:08.672Z,16.23
2022-11-15T03:46:47.813Z,18.48
2022-11-15T03:50:12.820Z,16.42
2022-11-15T03:53:33.687Z,14.98
2022-11-15T03:56:54.181Z,14.93
2022-11-15T04:00:14.437Z,13.63
2022-11-15T04:03:35.047Z,15.32
2022-11-15T04:06:55.387Z,14.57
2022-11-15T04:10:16.317Z,13.10
2022-11-15T04:13:36.268Z,15.35
2022-11-15T04:16:56.535Z,14.43
2022-11-15T04:20:55.133Z,14.55
2022-11-15T04:24:15.589Z,17.13
2022-11-15T04:27:35.686Z,16.30
2022-11-15T04:30:55.571Z,13.50
2022-11-15T04:34:16.009Z,13.30
2022-11-15T04:37:36.050Z,14.40
2022-11-15T04:40:56.075Z,12.97
2022-11-15T04:44:17.379Z,15.93
2022-11-15T04:47:37.565Z,14.32
2022-11-15T04:50:57.855Z,15.18
2022-11-15T04:54:18.019Z,15.57
2022-11-15T04:57:39.100Z,13.80
2022-11-15T05:00:59.145Z,14.25
2022-11-15T05:04:22.069Z,12.67
2022-11-15T05:07:41.970Z,13.68
2022-11-15T05:11:02.214Z,14.32
2022-11-15T05:14:22.296Z,14.13
2022-11-15T05:17:42.523Z,13.50
2022-11-15T05:21:07.834Z,14.90
2022-11-15T05:24:27.887Z,14.52
2022-11-15T05:27:48.060Z,16.48
2022-11-15T05:31:11.073Z,14.32
2022-11-15T05:34:31.246Z,14.98
2022-11-15T05:37:51.443Z,14.37
2022-11-15T05:41:12.798Z,14.35
2022-11-15T05:44:34.512Z,14.70
2022-11-15T05:47:56.682Z,15.13
2022-11-15T05:51:19.893Z,15.88
2022-11-15T05:54:40.692Z,17.27
2022-11-15T05:58:01.716Z,18.85
2022-11-15T06:01:22.531Z,19.67
2022-11-15T06:04:42.791Z,18.42
2022-11-15T06:08:02.904Z,15.23
2022-11-15T06:11:23.200Z,18.07
2022-11-15T06:14:43.418Z,15.80
2022-11-15T06:18:03.705Z,14.40
2022-11-15T06:21:24.453Z,15.20
2022-11-15T06:24:44.977Z,16.42
2022-11-15T06:28:05.232Z,15.38
2022-11-15T06:31:25.303Z,17.92
2022-11-15T06:34:45.615Z,17.58
2022-11-15T06:38:08.396Z,15.70
2022-11-15T06:41:28.266Z,15.38
2022-11-15T06:44:48.418Z,17.83
2022-11-15T06:48:08.389Z,18.05
2022-11-15T06:51:28.540Z,18.50
2022-11-15T06:54:48.737Z,17.93
2022-11-15T06:58:08.678Z,21.45
2022-11-15T07:01:28.687Z,19.10
2022-11-15T07:04:48.736Z,22.23
2022-11-15T07:08:08.853Z,26.42
2022-11-15T07:11:29.223Z,24.75
2022-11-15T07:14:49.140Z,22.48
2022-11-15T07:18:09.403Z,22.63
2022-11-15T07:21:29.800Z,19.83
2022-11-15T07:24:49.830Z,19.52
2022-11-15T07:28:10.244Z,19.30
2022-11-15T07:31:30.665Z,23.00
2022-11-15T07:34:50.602Z,24.88
2022-11-15T07:38:10.693Z,22.38
2022-11-15T07:41:30.994Z,22.10
2022-11-15T07:44:51.024Z,22.02
2022-11-15T07:48:11.498Z,23.92
2022-11-15T07:51:31.450Z,18.43
2022-11-15T07:54:51.621Z,18.45
2022-11-15T07:58:12.879Z,17.40
2022-11-15T08:01:33.027Z,17.03
2022-11-15T08:04:53.355Z,20.40
2022-11-15T08:08:13.587Z,19.58
2022-11-15T08:11:33.724Z,25.67
2022-11-15T08:14:53.707Z,22.40
2022-11-15T08:18:16.722Z,18.80
2022-11-15T08:21:38.306Z,18.00
2022-11-15T08:24:58.527Z,17.73
2022-11-15T08:28:18.961Z,18.80
2022-11-15T08:31:39.689Z,20.45
2022-11-15T08:34:59.519Z,20.33
2022-11-15T08:38:19.495Z,16.67
2022-11-15T08:41:39.545Z,19.20
2022-11-15T08:45:00.200Z,18.67
2022-11-15T08:48:20.518Z,19.48
2022-11-15T08:51:40.868Z,20.38
2022-11-15T08:55:01.219Z,19.63
2022-11-15T08:58:21.433Z,15.43
2022-11-15T09:01:41.809Z,17.40
2022-11-15T09:05:02.078Z,16.63
2022-11-15T09:12:03.118Z,16.23
2022-11-15T09:15:23.591Z,16.40
2022-11-15T09:18:43.780Z,14.95
2022-11-15T09:22:07.664Z,14.07
2022-11-15T09:25:28.172Z,16.20
2022-11-15T09:28:48.209Z,17.88
2022-11-15T09:32:08.396Z,15.23
2022-11-15T09:35:28.431Z,16.40
2022-11-15T09:38:48.608Z,14.15
2022-11-15T09:42:46.955Z,13.07
2022-11-15T09:46:55.045Z,11.32
2022-11-15T09:50:28.276Z,14.95
2022-11-15T09:54:18.619Z,12.85
2022-11-15T09:57:16.332Z,11.40
2022-11-15T10:00:45.345Z,11.98
2022-11-15T10:03:46.590Z,12.25
2022-11-15T10:07:05.410Z,11.40
2022-11-15T10:10:35.000Z,12.15
2022-11-15T10:13:42.321Z,11.02
2022-11-15T10:16:57.794Z,12.53
2022-11-15T10:20:08.420Z,10.88
2022-11-15T10:23:14.314Z,11.43
2022-11-15T10:26:17.716Z,11.23
2022-11-15T10:29:27.148Z,10.95
2022-11-15T10:32:29.447Z,11.70
2022-11-15T10:35:31.565Z,10.02
2022-11-15T10:38:33.524Z,12.77
2022-11-15T10:41:38.845Z,13.93
2022-11-15T10:44:44.015Z,10.32
2022-11-15T10:47:45.515Z,12.67
2022-11-15T10:50:49.551Z,11.25
2022-11-15T10:53:52.547Z,12.43
2022-11-15T10:56:57.119Z,10.35
2022-11-15T11:00:01.969Z,11.20
2022-11-15T11:03:09.344Z,9.15
2022-11-15T11:06:16.869Z,11.25
2022-11-15T11:09:33.720Z,8.63
2022-11-15T11:12:35.543Z,8.93
2022-11-15T11:15:37.130Z,10.68
2022-11-15T11:19:17.588Z,10.00
2022-11-15T11:22:35.694Z,10.20
2022-11-15T11:25:47.510Z,9.68
2022-11-15T11:29:05.628Z,8.77
2022-11-15T11:32:38.426Z,10.43
2022-11-15T11:35:54.199Z,9.93
2022-11-15T11:39:26.995Z,9.75
2022-11-15T11:42:40.918Z,9.47
2022-11-15T11:45:59.654Z,9.75
2022-11-15T11:49:22.372Z,9.00
2022-11-15T11:52:40.724Z,10.37
2022-11-15T11:55:50.832Z,11.10
2022-11-15T11:58:54.679Z,9.82
2022-11-15T12:01:56.475Z,8.90
2022-11-15T12:05:12.919Z,10.25
2022-11-15T12:08:29.908Z,9.82
2022-11-15T12:11:53.359Z,11.85
2022-11-15T12:15:02.019Z,10.97
2022-11-15T12:21:49.886Z,9.15
2022-11-15T12:25:02.036Z,10.00
2022-11-15T12:28:34.929Z,9.07
2022-11-15T12:31:46.781Z,9.15
2022-11-15T12:34:51.209Z,8.93
2022-11-15T12:37:56.207Z,8.65
2022-11-15T12:41:15.917Z,8.57
2022-11-15T12:44:32.828Z,8.63
2022-11-15T12:47:34.375Z,10.23
2022-11-15T12:50:55.213Z,9.57
2022-11-15T12:53:56.744Z,9.38
2022-11-15T12:57:04.209Z,11.23
2022-11-15T13:00:08.796Z,9.40
2022-11-15T13:03:24.790Z,9.27
2022-11-15T13:06:49.774Z,8.38
2022-11-15T13:09:52.812Z,8.20
2022-11-15T13:12:57.705Z,9.35
2022-11-15T13:16:02.742Z,8.57
2022-11-15T13:23:03.739Z,9.30
2022-11-15T13:26:17.471Z,8.63
2022-11-15T13:29:21.168Z,9.77
2022-11-15T13:32:23.310Z,8.57
2022-11-15T13:35:28.085Z,9.73
2022-11-15T13:38:32.756Z,9.45
2022-11-15T13:41:36.816Z,8.33
2022-11-15T13:44:38.509Z,12.05
2022-11-15T13:47:40.073Z,9.00
2022-11-15T13:50:41.884Z,7.97
2022-11-15T13:53:48.513Z,9.70
2022-11-15T13:56:59.022Z,8.85
2022-11-15T14:00:25.296Z,7.85
2022-11-15T14:03:30.960Z,11.27
2022-11-15T14:06:32.933Z,9.57
2022-11-15T14:09:39.708Z,10.77
2022-11-15T14:12:51.829Z,9.85
2022-11-15T14:15:53.447Z,10.57
2022-11-15T14:18:55.014Z,10.37
2022-11-15T14:22:17.874Z,10.00
2022-11-15T14:25:31.690Z,12.02
2022-11-15T14:28:37.578Z,11.30
2022-11-15T14:31:43.976Z,13.13
2022-11-15T14:34:46.665Z,12.02
2022-11-15T14:37:48.533Z,16.60
2022-11-15T14:40:50.074Z,18.10
2022-11-15T14:43:53.111Z,25.05
2022-11-15T14:46:54.616Z,16.27
2022-11-15T14:49:56.221Z,15.63
2022-11-15T14:52:57.802Z,14.68
2022-11-15T14:55:59.364Z,19.02
2022-11-15T14:59:01.163Z,16.33
2022-11-15T15:02:02.784Z,16.77
2022-11-15T15:05:32.466Z,16.45
2022-11-15T15:08:34.176Z,15.82
2022-11-15T15:11:35.889Z,15.33
2022-11-15T15:14:37.534Z,20.15
2022-11-15T15:17:39.142Z,19.25
2022-11-15T15:20:42.828Z,19.40
2022-11-15T15:23:44.345Z,16.92
2022-11-15T15:26:45.848Z,18.10
2022-11-15T15:29:47.407Z,16.65
2022-11-15T15:32:49.116Z,16.10
2022-11-15T15:35:50.731Z,18.05
2022-11-15T15:38:53.453Z,14.82
2022-11-15T15:41:57.519Z,13.32
2022-11-15T15:44:59.142Z,13.68
2022-11-15T15:48:00.669Z,14.88
2022-11-15T15:51:07.286Z,13.77
2022-11-15T15:54:12.764Z,14.70
2022-11-15T15:57:15.232Z,12.93
2022-11-15T16:00:17.714Z,15.02
2022-11-15T16:03:19.229Z,16.07
2022-11-15T16:06:40.243Z,17.70
2022-11-15T16:10:00.323Z,23.60
2022-11-15T16:13:01.999Z,19.05
2022-11-15T16:16:03.537Z,22.92
2022-11-15T16:19:05.601Z,19.58
2022-11-15T16:22:07.091Z,17.27
2022-11-15T16:25:09.054Z,17.67
2022-11-15T16:28:32.249Z,16.83
2022-11-15T16:31:34.069Z,17.45
2022-11-15T16:34:40.507Z,16.40
2022-11-15T16:37:46.439Z,15.05
2022-11-15T16:40:48.136Z,17.83
2022-11-15T16:43:49.713Z,18.58
2022-11-15T16:46:54.636Z,18.40
2022-11-15T16:49:56.156Z,18.52
2022-11-15T16:52:59.277Z,18.02
2022-11-15T16:56:00.793Z,17.53
2022-11-15T16:59:02.394Z,23.55
2022-11-15T17:02:03.996Z,23.95
2022-11-15T17:05:10.388Z,26.63
2022-11-15T17:08:13.458Z,25.63
2022-11-15T17:11:17.589Z,25.33
2022-11-15T17:14:19.332Z,28.67
2022-11-15T17:17:21.588Z,27.27
2022-11-15T17:20:25.493Z,28.13
2022-11-15T17:23:27.020Z,27.27
2022-11-15T17:26:31.122Z,30.47
2022-11-15T17:29:33.081Z,30.90
2022-11-15T17:32:37.381Z,29.77
2022-11-15T17:35:38.965Z,28.77
2022-11-15T17:38:43.651Z,28.63
2022-11-15T17:41:45.271Z,25.13
2022-11-15T17:44:46.835Z,21.20
2022-11-15T17:47:48.436Z,25.58
2022-11-15T17:51:05.323Z,22.50
2022-11-15T17:54:07.067Z,22.08
2022-11-15T17:57:08.611Z,22.00
2022-11-15T18:00:11.088Z,25.27
2022-11-15T18:03:13.086Z,23.75
2022-11-15T18:06:15.680Z,30.83
2022-11-15T18:09:17.198Z,36.47
2022-11-15T18:12:19.768Z,40.80
2022-11-15T18:15:21.537Z,41.50
2022-11-15T18:18:23.049Z,38.40
2022-11-15T18:21:29.612Z,33.90
2022-11-15T18:24:34.719Z,30.27
2022-11-15T18:27:36.448Z,29.13
2022-11-15T18:30:38.773Z,26.63
2022-11-15T18:33:40.340Z,34.33
2022-11-15T18:36:42.766Z,41.10
2022-11-15T18:39:45.188Z,37.90
2022-11-15T18:42:48.085Z,29.63
2022-11-15T18:45:49.641Z,27.85
2022-11-15T18:48:52.637Z,31.13
2022-11-15T18:51:54.238Z,34.20
2022-11-15T18:54:55.750Z,43.67
2022-11-15T18:57:57.239Z,48.70
2022-11-15T19:01:06.643Z,33.28
2022-11-15T19:04:13.305Z,42.08
2022-11-15T19:07:15.084Z,31.20
2022-11-15T19:10:16.669Z,37.10
2022-11-15T19:13:18.140Z,33.67
2022-11-15T19:16:19.977Z,27.15
2022-11-15T19:19:24.495Z,24.50
2022-11-15T19:22:26.064Z,25.40
2022-11-15T19:25:28.880Z,23.95
2022-11-15T19:28:31.028Z,24.23
2022-11-15T19:31:33.211Z,25.00
2022-11-15T19:34:34.755Z,24.25
2022-11-15T19:37:36.327Z,24.07
2022-11-15T19:40:38.006Z,24.52
2022-11-15T19:43:39.785Z,23.50
2022-11-15T19:46:42.052Z,25.13
2022-11-15T19:49:43.647Z,23.05
2022-11-15T19:52:45.524Z,23.27
2022-11-15T19:55:57.341Z,27.45
2022-11-15T19:58:59.054Z,39.93
2022-11-15T20:02:00.589Z,53.22
2022-11-15T20:05:02.173Z,45.05
2022-11-15T20:08:03.798Z,45.93
2022-11-15T20:11:05.797Z,40.78
2022-11-15T20:14:09.560Z,34.65
2022-11-15T20:17:11.118Z,28.08
2022-11-15T20:20:12.785Z,26.27
2022-11-15T20:23:14.521Z,25.35
2022-11-15T20:26:16.321Z,23.20
2022-11-15T20:29:17.942Z,22.17
2022-11-15T20:32:19.833Z,20.10
2022-11-15T20:35:21.393Z,20.30
2022-11-15T20:38:23.424Z,18.00
2022-11-15T20:41:25.645Z,20.52
2022-11-15T20:44:27.383Z,18.90
2022-11-15T20:47:31.437Z,21.58
2022-11-15T20:50:42.658Z,20.70
2022-11-15T20:53:47.921Z,25.15
2022-11-15T20:56:49.430Z,34.65
2022-11-15T20:59:50.944Z,31.47
2022-11-15T21:02:53.123Z,31.88
2022-11-15T21:05:54.782Z,26.42
2022-11-15T21:09:14.914Z,25.13
2022-11-15T21:12:16.811Z,23.23
2022-11-15T21:15:18.822Z,21.70
2022-11-15T21:18:20.927Z,17.27
2022-11-15T21:21:22.502Z,17.55
2022-11-15T21:24:24.723Z,17.25
2022-11-15T21:27:26.404Z,14.65
2022-11-15T21:30:28.355Z,15.17
2022-11-15T21:33:29.876Z,16.90
2022-11-15T21:36:31.820Z,15.40
2022-11-15T21:39:33.889Z,16.77
2022-11-15T21:42:35.430Z,15.48
2022-11-15T21:45:37.040Z,16.25
2022-11-15T21:48:38.577Z,17.73
2022-11-15T21:51:40.709Z,17.55
2022-11-15T21:54:44.442Z,18.77
2022-11-15T21:57:45.996Z,17.83
2022-11-15T22:01:06.220Z,16.77
2022-11-15T22:04:07.889Z,16.35
2022-11-15T22:07:09.563Z,15.75
2022-11-15T22:10:11.244Z,16.13
2022-11-15T22:13:13.074Z,16.95
2022-11-15T22:16:14.618Z,16.73
2022-11-15T22:19:16.332Z,18.48
2022-11-15T22:22:17.863Z,16.85
2022-11-15T22:25:19.434Z,18.25
2022-11-15T22:28:22.206Z,17.45
2022-11-15T22:31:23.851Z,17.50
2022-11-15T22:34:25.435Z,17.80
2022-11-15T22:37:26.971Z,17.60
2022-11-15T22:40:28.460Z,17.50
2022-11-15T22:43:30.100Z,15.68
2022-11-15T22:46:31.623Z,16.38
2022-11-15T22:49:33.197Z,15.95
2022-11-15T22:52:35.331Z,16.95
2022-11-15T22:55:41.012Z,17.13
2022-11-15T22:58:42.522Z,17.35
2022-11-15T23:01:44.393Z,18.30
2022-11-15T23:04:46.175Z,16.73
2022-11-15T23:07:47.739Z,18.73
2022-11-15T23:11:07.814Z,16.47
2022-11-15T23:14:10.498Z,18.05
2022-11-15T23:17:12.267Z,16.42
2022-11-15T23:20:36.875Z,19.27
2022-11-15T23:23:36.201Z,16.27
2022-11-15T23:26:38.571Z,19.80
2022-11-15T23:29:58.928Z,16.33
2022-11-15T23:33:19.303Z,17.03
2022-11-15T23:36:20.816Z,15.43
2022-11-15T23:39:22.635Z,14.48
2022-11-15T23:42:24.207Z,18.23
2022-11-15T23:45:25.737Z,17.95
2022-11-15T23:48:27.839Z,16.50
2022-11-15T23:51:29.404Z,16.70
2022-11-15T23:54:31.041Z,17.25
2022-11-15T23:57:32.623Z,15.95
